createdAt,value
2023-02-04T00:00:58.217Z,2.67
2023-02-04T00:03:45.587Z,3.00
2023-02-04T00:06:33.069Z,3.80
2023-02-04T00:09:20.443Z,4.00
2023-02-04T00:12:10.619Z,4.87
2023-02-04T00:14:58.078Z,1.70
2023-02-04T00:17:45.449Z,3.00
2023-02-04T00:20:32.978Z,2.37
2023-02-04T00:23:20.540Z,3.73
2023-02-04T00:26:07.921Z,3.30
2023-02-04T00:28:55.340Z,2.03
2023-02-04T00:31:42.761Z,5.10
2023-02-04T00:34:30.144Z,5.23
2023-02-04T00:37:17.501Z,4.77
2023-02-04T00:40:04.954Z,4.60
2023-02-04T00:42:52.367Z,3.23
2023-02-04T00:45:39.746Z,2.50
2023-02-04T00:48:27.633Z,2.80
2023-02-04T00:51:15.044Z,1.40
2023-02-04T00:54:02.379Z,2.30
2023-02-04T00:56:49.727Z,4.13
2023-02-04T00:59:37.105Z,1.60
2023-02-04T01:02:24.463Z,2.07
2023-02-04T01:05:11.811Z,2.40
2023-02-04T01:07:59.192Z,1.47
2023-02-04T01:10:46.642Z,1.50
2023-02-04T01:13:34.037Z,1.70
2023-02-04T01:16:21.527Z,2.83
2023-02-04T01:19:09.386Z,2.80
2023-02-04T01:21:56.839Z,2.23
2023-02-04T01:24:44.274Z,3.73
2023-02-04T01:27:31.658Z,3.77
2023-02-04T01:30:19.080Z,3.33
2023-02-04T01:33:06.569Z,1.67
2023-02-04T01:35:54.046Z,1.67
2023-02-04T01:38:41.368Z,3.30
2023-02-04T01:41:28.982Z,2.17
2023-02-04T01:44:16.405Z,3.10
2023-02-04T01:47:03.808Z,1.83
2023-02-04T01:49:53.350Z,2.80
2023-02-04T01:52:41.227Z,1.93
2023-02-04T01:55:30.741Z,2.63
2023-02-04T01:58:18.385Z,3.00
2023-02-04T02:01:10.992Z,1.20
2023-02-04T02:03:58.368Z,4.00
2023-02-04T02:07:06.044Z,2.23
2023-02-04T02:09:53.393Z,2.33
2023-02-04T02:12:41.102Z,1.37
2023-02-04T02:15:28.494Z,1.40
2023-02-04T02:18:16.442Z,2.03
2023-02-04T02:21:05.955Z,1.80
2023-02-04T02:23:54.729Z,2.43
2023-02-04T02:26:42.081Z,1.77
2023-02-04T02:29:29.985Z,3.70
2023-02-04T02:32:17.850Z,3.80
2023-02-04T02:35:05.966Z,2.50
2023-02-04T02:37:53.419Z,3.37
2023-02-04T02:40:40.838Z,1.70
2023-02-04T02:43:29.196Z,1.67
2023-02-04T02:46:16.662Z,1.90
2023-02-04T02:49:04.365Z,1.83
2023-02-04T02:51:51.796Z,1.47
2023-02-04T02:54:39.604Z,2.93
2023-02-04T02:57:27.015Z,1.93
2023-02-04T03:00:23.051Z,2.20
2023-02-04T03:03:17.640Z,3.70
2023-02-04T03:06:26.000Z,2.13
2023-02-04T03:09:13.365Z,2.07
2023-02-04T03:12:01.913Z,1.90
2023-02-04T03:14:49.335Z,3.07
2023-02-04T03:17:37.413Z,3.63
2023-02-04T03:20:25.405Z,4.37
2023-02-04T03:23:13.138Z,2.90
2023-02-04T03:26:00.997Z,3.40
2023-02-04T03:28:48.385Z,4.17
2023-02-04T03:31:36.140Z,5.40
2023-02-04T03:34:23.802Z,3.97
2023-02-04T03:37:11.214Z,2.07
2023-02-04T03:39:58.564Z,1.73
2023-02-04T03:42:45.949Z,3.27
2023-02-04T03:45:44.725Z,3.93
2023-02-04T03:48:32.563Z,2.80
2023-02-04T03:51:19.912Z,3.43
2023-02-04T03:54:07.387Z,4.03
2023-02-04T03:56:54.730Z,2.57
2023-02-04T03:59:42.299Z,2.93
2023-02-04T04:02:29.710Z,2.23
2023-02-04T04:05:17.164Z,3.77
2023-02-04T04:08:04.624Z,2.13
2023-02-04T04:10:51.985Z,3.80
2023-02-04T04:13:39.354Z,2.50
2023-02-04T04:16:26.719Z,2.37
2023-02-04T04:19:14.092Z,3.03
2023-02-04T04:22:01.856Z,3.60
2023-02-04T04:24:49.196Z,2.00
2023-02-04T04:27:36.527Z,3.70
2023-02-04T04:30:23.868Z,2.50
2023-02-04T04:33:11.362Z,2.77
2023-02-04T04:35:58.717Z,4.67
2023-02-04T04:38:46.268Z,4.27
2023-02-04T04:41:33.670Z,2.87
2023-02-04T04:44:21.098Z,3.90
2023-02-04T04:47:08.494Z,4.93
2023-02-04T04:49:55.821Z,1.80
2023-02-04T04:52:43.138Z,2.13
2023-02-04T04:55:30.640Z,2.53
2023-02-04T04:58:18.029Z,2.17
2023-02-04T05:01:05.469Z,2.30
2023-02-04T05:03:52.878Z,2.43
2023-02-04T05:06:40.269Z,1.60
2023-02-04T05:09:27.623Z,3.20
2023-02-04T05:12:15.009Z,4.53
2023-02-04T05:15:02.357Z,3.73
2023-02-04T05:17:49.726Z,3.80
2023-02-04T05:20:37.185Z,4.27
2023-02-04T05:23:24.550Z,5.70
2023-02-04T05:26:17.133Z,1.73
2023-02-04T05:29:10.815Z,3.93
2023-02-04T05:31:58.238Z,3.23
2023-02-04T05:34:45.694Z,3.47
2023-02-04T05:37:33.059Z,2.60
2023-02-04T05:40:20.552Z,3.23
2023-02-04T05:43:07.962Z,3.20
2023-02-04T05:45:55.377Z,2.37
2023-02-04T05:48:42.829Z,1.87
2023-02-04T05:51:30.216Z,3.83
2023-02-04T05:54:20.413Z,3.33
2023-02-04T05:57:07.821Z,3.03
2023-02-04T05:59:55.174Z,2.63
2023-02-04T06:02:42.567Z,3.53
2023-02-04T06:05:30.023Z,3.97
2023-02-04T06:08:17.414Z,2.33
2023-02-04T06:11:04.930Z,4.10
2023-02-04T06:13:52.320Z,2.30
2023-02-04T06:16:39.774Z,2.93
2023-02-04T06:19:27.135Z,3.80
2023-02-04T06:22:14.490Z,5.40
2023-02-04T06:25:01.862Z,3.53
2023-02-04T06:27:49.584Z,2.90
2023-02-04T06:30:37.462Z,4.33
2023-02-04T06:33:24.988Z,4.47
2023-02-04T06:36:12.404Z,2.07
2023-02-04T06:38:59.814Z,2.73
2023-02-04T06:41:47.230Z,2.00
2023-02-04T06:44:34.583Z,5.17
2023-02-04T06:47:21.979Z,3.20
2023-02-04T06:50:09.672Z,3.73
2023-02-04T06:52:57.076Z,4.00
2023-02-04T06:55:44.484Z,4.47
2023-02-04T06:58:31.866Z,3.33
2023-02-04T07:01:19.298Z,3.73
2023-02-04T07:04:06.678Z,3.30
2023-02-04T07:06:54.322Z,2.60
2023-02-04T07:09:42.527Z,2.67
2023-02-04T07:12:30.013Z,3.30
2023-02-04T07:15:17.765Z,3.03
2023-02-04T07:18:05.158Z,3.63
2023-02-04T07:20:52.563Z,10.17
2023-02-04T07:23:39.941Z,3.60
2023-02-04T07:26:27.297Z,3.37
2023-02-04T07:29:20.691Z,2.77
2023-02-04T07:32:11.475Z,3.87
2023-02-04T07:34:58.926Z,4.17
2023-02-04T07:37:46.441Z,3.03
2023-02-04T07:40:34.000Z,4.07
2023-02-04T07:43:21.741Z,3.40
2023-02-04T07:46:09.162Z,3.90
2023-02-04T07:48:56.670Z,3.20
2023-02-04T07:51:44.039Z,3.23
2023-02-04T07:54:31.403Z,5.13
2023-02-04T07:57:20.486Z,2.17
2023-02-04T08:00:08.216Z,2.77
2023-02-04T08:02:55.718Z,3.20
2023-02-04T08:05:43.184Z,3.30
2023-02-04T08:08:30.693Z,3.23
2023-02-04T08:11:18.088Z,3.70
2023-02-04T08:14:05.477Z,4.07
2023-02-04T08:16:52.832Z,4.33
2023-02-04T08:19:40.210Z,4.37
2023-02-04T08:22:27.667Z,4.07
2023-02-04T08:25:15.100Z,2.20
2023-02-04T08:28:02.490Z,3.40
2023-02-04T08:30:49.888Z,4.30
2023-02-04T08:33:38.138Z,2.93
2023-02-04T08:36:25.533Z,6.00
2023-02-04T08:39:13.041Z,2.30
2023-02-04T08:42:00.434Z,4.50
2023-02-04T08:44:47.810Z,2.93
2023-02-04T08:47:35.198Z,2.70
2023-02-04T08:50:22.796Z,5.03
2023-02-04T08:53:10.247Z,4.37
2023-02-04T08:55:57.600Z,2.33
2023-02-04T08:58:45.297Z,5.90
2023-02-04T09:01:32.643Z,2.27
2023-02-04T09:04:21.302Z,3.67
2023-02-04T09:07:08.740Z,3.10
2023-02-04T09:09:56.105Z,2.27
2023-02-04T09:12:43.492Z,3.43
2023-02-04T09:15:31.658Z,3.70
2023-02-04T09:18:22.248Z,2.90
2023-02-04T09:21:09.638Z,3.27
2023-02-04T09:23:57.084Z,2.83
2023-02-04T09:26:44.407Z,3.40
2023-02-04T09:29:32.594Z,6.40
2023-02-04T09:32:20.017Z,3.13
2023-02-04T09:35:07.483Z,5.03
2023-02-04T09:37:54.881Z,6.93
2023-02-04T09:40:43.515Z,3.57
2023-02-04T09:43:32.641Z,6.10
2023-02-04T09:46:24.194Z,4.07
2023-02-04T09:49:11.776Z,3.03
2023-02-04T09:51:59.412Z,4.67
2023-02-04T09:54:46.834Z,6.07
2023-02-04T09:57:34.257Z,5.10
2023-02-04T10:00:23.323Z,2.70
2023-02-04T10:03:23.898Z,3.73
2023-02-04T10:06:11.370Z,4.13
2023-02-04T10:08:58.743Z,2.93
2023-02-04T10:11:48.442Z,4.00
2023-02-04T10:14:35.869Z,3.07
2023-02-04T10:17:23.387Z,1.93
2023-02-04T10:20:15.074Z,5.30
2023-02-04T10:23:02.391Z,4.07
2023-02-04T10:25:49.730Z,2.73
2023-02-04T10:28:37.452Z,4.17
2023-02-04T10:31:37.107Z,3.73
2023-02-04T10:34:34.965Z,4.30
2023-02-04T10:37:23.274Z,1.90
2023-02-04T10:40:31.539Z,3.33
2023-02-04T10:43:21.994Z,3.50
2023-02-04T10:46:09.434Z,3.93
2023-02-04T10:48:56.817Z,2.83
2023-02-04T10:51:44.164Z,3.17
2023-02-04T10:54:38.363Z,1.33
2023-02-04T10:57:29.848Z,2.00
2023-02-04T11:00:25.070Z,2.80
2023-02-04T11:03:16.622Z,3.40
2023-02-04T11:06:10.301Z,2.73
2023-02-04T11:09:00.340Z,1.63
2023-02-04T11:11:48.546Z,1.80
2023-02-04T11:14:36.000Z,3.20
2023-02-04T11:17:30.278Z,2.80
2023-02-04T11:20:18.290Z,7.70
2023-02-04T11:23:35.747Z,3.57
2023-02-04T11:26:33.342Z,5.67
2023-02-04T11:29:48.010Z,5.23
2023-02-04T11:32:37.877Z,2.93
2023-02-04T11:35:28.580Z,2.73
2023-02-04T11:38:26.926Z,2.53
2023-02-04T11:41:18.740Z,3.03
2023-02-04T11:44:06.114Z,1.93
2023-02-04T11:46:58.343Z,2.97
2023-02-04T11:49:47.428Z,3.30
2023-02-04T11:52:35.992Z,2.03
2023-02-04T11:55:23.441Z,2.70
2023-02-04T11:58:18.168Z,1.93
2023-02-04T12:01:08.471Z,1.17
2023-02-04T12:04:03.200Z,3.07
2023-02-04T12:07:04.708Z,2.20
2023-02-04T12:09:52.107Z,2.10
2023-02-04T12:12:49.523Z,2.23
2023-02-04T12:15:36.960Z,2.33
2023-02-04T12:18:24.444Z,1.77
2023-02-04T12:21:12.182Z,1.70
2023-02-04T12:23:59.613Z,1.53
2023-02-04T12:26:47.015Z,1.87
2023-02-04T12:29:34.456Z,11.87
2023-02-04T12:32:21.995Z,2.80
2023-02-04T12:35:09.517Z,2.47
2023-02-04T12:37:57.953Z,2.03
2023-02-04T12:40:45.630Z,1.20
2023-02-04T12:43:33.083Z,2.00
2023-02-04T12:46:20.516Z,3.57
2023-02-04T12:49:09.642Z,2.10
2023-02-04T12:51:59.132Z,2.33
2023-02-04T12:54:46.538Z,2.03
2023-02-04T12:57:34.376Z,3.90
2023-02-04T13:00:22.157Z,1.50
2023-02-04T13:03:09.628Z,2.10
2023-02-04T13:05:57.127Z,1.97
2023-02-04T13:08:44.487Z,1.50
2023-02-04T13:11:31.858Z,2.63
2023-02-04T13:14:19.198Z,2.70
2023-02-04T13:17:07.116Z,0.70
2023-02-04T13:19:54.507Z,0.87
2023-02-04T13:22:41.952Z,1.23
2023-02-04T13:25:29.357Z,1.17
2023-02-04T13:28:16.792Z,1.10
2023-02-04T13:31:04.579Z,3.00
2023-02-04T13:33:51.992Z,2.20
2023-02-04T13:36:39.809Z,1.70
2023-02-04T13:39:27.149Z,1.80
2023-02-04T13:42:14.559Z,1.93
2023-02-04T13:45:02.068Z,1.83
2023-02-04T13:47:49.489Z,0.97
2023-02-04T13:50:36.907Z,4.53
2023-02-04T13:53:25.626Z,5.93
2023-02-04T13:56:13.052Z,3.23
2023-02-04T13:59:00.455Z,1.20
2023-02-04T14:01:47.882Z,3.07
2023-02-04T14:04:36.871Z,15.80
2023-02-04T14:07:24.438Z,1.93
2023-02-04T14:10:11.786Z,3.07
2023-02-04T14:12:59.274Z,2.30
2023-02-04T14:15:46.712Z,1.80
2023-02-04T14:18:34.115Z,3.33
2023-02-04T14:21:21.615Z,3.10
2023-02-04T14:24:09.160Z,1.30
2023-02-04T14:26:56.572Z,1.57
2023-02-04T14:29:43.923Z,1.23
2023-02-04T14:32:31.322Z,1.67
2023-02-04T14:35:18.911Z,1.80
2023-02-04T14:38:06.301Z,1.73
2023-02-04T14:40:53.661Z,2.60
2023-02-04T14:43:40.994Z,2.30
2023-02-04T14:46:28.393Z,1.13
2023-02-04T14:49:16.236Z,3.83
2023-02-04T14:52:04.465Z,1.53
2023-02-04T14:54:51.828Z,2.77
2023-02-04T14:57:39.295Z,2.83
2023-02-04T15:00:26.659Z,3.47
2023-02-04T15:03:14.070Z,1.10
2023-02-04T15:06:01.751Z,1.17
2023-02-04T15:08:49.159Z,1.43
2023-02-04T15:11:36.512Z,3.93
2023-02-04T15:14:23.983Z,0.73
2023-02-04T15:17:11.370Z,2.73
2023-02-04T15:19:58.762Z,1.40
2023-02-04T15:22:46.310Z,2.40
2023-02-04T15:25:33.678Z,1.47
2023-02-04T15:28:21.056Z,2.53
2023-02-04T15:31:09.022Z,2.17
2023-02-04T15:33:56.449Z,2.27
2023-02-04T15:36:43.812Z,3.03
2023-02-04T15:39:31.287Z,2.30
2023-02-04T15:42:18.621Z,1.10
2023-02-04T15:45:06.465Z,1.70
2023-02-04T15:47:53.896Z,2.80
2023-02-04T15:50:41.292Z,2.20
2023-02-04T15:53:28.706Z,3.23
2023-02-04T15:56:16.069Z,2.83
2023-02-04T15:59:03.473Z,1.73
2023-02-04T16:01:50.941Z,1.70
2023-02-04T16:04:38.535Z,3.55
2023-02-04T16:07:25.879Z,2.53
2023-02-04T16:10:13.231Z,3.10
2023-02-04T16:13:00.625Z,3.10
2023-02-04T16:15:48.470Z,3.53
2023-02-04T16:18:35.868Z,2.77
2023-02-04T16:21:23.299Z,4.20
2023-02-04T16:24:10.699Z,3.13
2023-02-04T16:26:58.091Z,4.50
2023-02-04T16:29:45.472Z,5.17
2023-02-04T16:32:33.732Z,5.03
2023-02-04T16:35:21.188Z,5.37
2023-02-04T16:38:08.563Z,4.80
2023-02-04T16:40:56.101Z,4.77
2023-02-04T16:43:43.789Z,6.73
2023-02-04T16:46:33.506Z,6.07
2023-02-04T16:49:20.895Z,6.57
2023-02-04T16:52:08.284Z,3.83
2023-02-04T16:54:55.688Z,6.60
2023-02-04T16:57:43.259Z,4.87
2023-02-04T17:00:30.730Z,9.63
2023-02-04T17:03:18.222Z,8.73
2023-02-04T17:06:05.666Z,3.93
2023-02-04T17:08:53.054Z,6.17
2023-02-04T17:11:40.972Z,10.73
2023-02-04T17:14:28.429Z,4.50
2023-02-04T17:17:15.811Z,14.83
2023-02-04T17:20:03.205Z,10.83
2023-02-04T17:22:52.055Z,6.43
2023-02-04T17:25:39.399Z,4.67
2023-02-04T17:28:26.909Z,5.20
2023-02-04T17:31:14.456Z,3.93
2023-02-04T17:34:03.118Z,5.43
2023-02-04T17:36:50.517Z,4.77
2023-02-04T17:39:37.852Z,5.60
2023-02-04T17:42:25.241Z,5.03
2023-02-04T17:45:12.886Z,29.47
2023-02-04T17:48:00.248Z,19.20
2023-02-04T17:50:47.633Z,8.07
2023-02-04T17:53:38.335Z,4.80
2023-02-04T17:56:27.011Z,4.03
2023-02-04T17:59:14.397Z,4.93
2023-02-04T18:02:01.993Z,2.83
2023-02-04T18:04:49.714Z,4.00
2023-02-04T18:07:37.064Z,3.20
2023-02-04T18:10:31.849Z,3.30
2023-02-04T18:13:20.749Z,7.57
2023-02-04T18:16:31.622Z,7.63
2023-02-04T18:19:20.920Z,7.37
2023-02-04T18:22:15.677Z,4.87
2023-02-04T18:25:07.778Z,6.60
2023-02-04T18:27:55.223Z,3.73
2023-02-04T18:30:43.353Z,4.40
2023-02-04T18:33:32.961Z,6.07
2023-02-04T18:36:23.006Z,4.67
2023-02-04T18:39:20.271Z,4.60
2023-02-04T18:42:14.223Z,5.07
2023-02-04T18:45:12.937Z,3.17
2023-02-04T18:48:23.462Z,5.50
2023-02-04T18:51:19.637Z,2.53
2023-02-04T18:54:25.585Z,4.43
2023-02-04T18:57:13.507Z,8.53
2023-02-04T19:00:10.086Z,2.67
2023-02-04T19:02:57.471Z,4.07
2023-02-04T19:05:48.888Z,5.23
2023-02-04T19:08:45.756Z,4.17
2023-02-04T19:11:37.007Z,27.43
2023-02-04T19:14:38.906Z,39.03
2023-02-04T19:17:28.015Z,36.23
2023-02-04T19:20:21.486Z,22.73
2023-02-04T19:23:14.340Z,31.37
2023-02-04T19:26:01.970Z,12.77
2023-02-04T19:28:51.287Z,16.70
2023-02-04T19:31:38.654Z,16.37
2023-02-04T19:34:28.791Z,6.77
2023-02-04T19:37:19.010Z,5.67
2023-02-04T19:40:24.145Z,5.53
2023-02-04T19:43:17.461Z,7.53
2023-02-04T19:46:19.587Z,7.10
2023-02-04T19:49:11.437Z,8.07
2023-02-04T19:51:59.711Z,4.80
2023-02-04T19:54:47.124Z,5.23
2023-02-04T19:57:35.403Z,6.00
2023-02-04T20:00:24.076Z,5.57
2023-02-04T20:03:21.052Z,5.37
2023-02-04T20:06:21.535Z,4.20
2023-02-04T20:09:16.245Z,3.63
2023-02-04T20:12:06.333Z,3.77
2023-02-04T20:14:56.697Z,6.40
2023-02-04T20:17:48.035Z,4.40
2023-02-04T20:20:39.418Z,3.70
2023-02-04T20:23:32.622Z,3.70
2023-02-04T20:26:20.050Z,2.53
2023-02-04T20:29:17.818Z,3.77
2023-02-04T20:32:29.938Z,4.47
2023-02-04T20:35:17.353Z,4.93
2023-02-04T20:38:13.830Z,4.07
2023-02-04T20:41:01.318Z,3.50
2023-02-04T20:43:49.721Z,7.77
2023-02-04T20:46:37.440Z,5.13
2023-02-04T20:49:26.064Z,7.33
2023-02-04T20:52:32.596Z,8.13
2023-02-04T20:55:24.029Z,10.03
2023-02-04T20:58:17.386Z,10.47
2023-02-04T21:01:18.180Z,16.73
2023-02-04T21:04:18.038Z,9.00
2023-02-04T21:07:17.767Z,6.70
2023-02-04T21:10:05.341Z,4.17
2023-02-04T21:13:00.141Z,7.57
2023-02-04T21:15:47.853Z,5.30
2023-02-04T21:18:35.777Z,6.00
2023-02-04T21:21:24.409Z,4.93
2023-02-04T21:24:11.843Z,4.10
2023-02-04T21:26:59.243Z,5.33
2023-02-04T21:29:46.602Z,4.93
2023-02-04T21:32:34.191Z,5.93
2023-02-04T21:35:24.462Z,4.77
2023-02-04T21:38:12.046Z,4.60
2023-02-04T21:40:59.406Z,4.30
2023-02-04T21:43:47.413Z,3.83
2023-02-04T21:46:34.921Z,5.20
2023-02-04T21:49:22.365Z,4.60
2023-02-04T21:52:09.806Z,5.47
2023-02-04T21:54:57.207Z,7.43
2023-02-04T21:57:46.346Z,7.27
2023-02-04T22:00:33.856Z,6.17
2023-02-04T22:03:21.326Z,6.50
2023-02-04T22:06:08.837Z,6.50
2023-02-04T22:08:56.180Z,4.90
2023-02-04T22:11:43.593Z,8.73
2023-02-04T22:14:31.298Z,5.87
2023-02-04T22:17:18.676Z,5.80
2023-02-04T22:20:06.572Z,4.73
2023-02-04T22:22:54.054Z,3.30
2023-02-04T22:25:41.428Z,7.13
2023-02-04T22:28:28.851Z,5.47
2023-02-04T22:31:16.315Z,7.80
2023-02-04T22:34:05.404Z,4.07
2023-02-04T22:36:53.332Z,5.47
2023-02-04T22:39:40.701Z,5.17
2023-02-04T22:42:28.134Z,5.60
2023-02-04T22:45:15.538Z,5.83
2023-02-04T22:48:03.052Z,4.70
2023-02-04T22:50:55.196Z,4.70
2023-02-04T22:53:42.666Z,4.70
2023-02-04T22:56:30.042Z,3.67
2023-02-04T22:59:17.413Z,4.53
2023-02-04T23:02:05.084Z,7.37
2023-02-04T23:04:52.481Z,4.50
2023-02-04T23:07:39.890Z,4.23
2023-02-04T23:10:27.272Z,4.30
2023-02-04T23:13:16.394Z,4.57
2023-02-04T23:16:03.857Z,4.47
2023-02-04T23:18:51.234Z,3.87
2023-02-04T23:21:38.603Z,5.83
2023-02-04T23:24:26.020Z,5.37
2023-02-04T23:27:13.468Z,4.40
2023-02-04T23:30:00.952Z,4.00
2023-02-04T23:32:49.462Z,5.67
2023-02-04T23:35:37.241Z,3.53
2023-02-04T23:38:24.788Z,3.60
2023-02-04T23:41:12.189Z,5.27
2023-02-04T23:43:59.535Z,3.10
2023-02-04T23:46:46.943Z,3.50
2023-02-04T23:49:34.322Z,5.40
2023-02-04T23:52:21.668Z,4.03
2023-02-04T23:55:09.054Z,5.23
2023-02-04T23:57:56.437Z,4.03
